Time;durP1;ratioP1;P1;durP2;ratioP2;P2;SDS_P1;SDS_P2;PMS_P1;PMS_P2;Temp;Humidity;BMP_temperature;BMP_pressure;BME280_temperature;BME280_humidity;BME280_pressure;Samples;Min_cycle;Max_cycle;Signal;HPM_P1;HPM_P2
2022/09/28 00:01:25;;;;;;;0.30;0.22;;;8.00;99.90;;;;;;5073278;28;20502;-81
2022/09/28 00:03:56;;;;;;;0.30;0.30;;;8.00;99.90;;;;;;5068315;28;20924;-82
2022/09/28 00:06:25;;;;;;;0.20;0.20;;;8.00;99.90;;;;;;5065434;28;20423;-81
2022/09/28 00:08:52;;;;;;;1.90;0.10;;;8.00;99.90;;;;;;5073547;28;21123;-82
2022/09/28 00:11:21;;;;;;;0.20;0.20;;;7.90;99.90;;;;;;5073502;28;20427;-81
2022/09/28 00:13:50;;;;;;;0.20;0.20;;;7.90;99.90;;;;;;5073132;28;20443;-83
2022/09/28 00:16:19;;;;;;;0.17;0.17;;;7.90;99.90;;;;;;5073019;28;20427;-81
2022/09/28 00:18:46;;;;;;;0.20;0.20;;;7.90;99.90;;;;;;5073418;28;20427;-83
2022/09/28 00:21:16;;;;;;;0.17;0.17;;;7.90;99.90;;;;;;5072738;28;20882;-82
2022/09/28 00:26:32;;;;;;;0.17;0.17;;;7.90;99.90;;;;;;5072689;28;20431;-83
2022/09/28 00:29:01;;;;;;;0.22;0.22;;;7.90;99.90;;;;;;5072520;28;20432;-82
2022/09/28 00:31:31;;;;;;;0.40;0.40;;;7.90;99.90;;;;;;5072650;28;20921;-82
2022/09/28 00:34:03;;;;;;;0.30;0.20;;;7.90;99.90;;;;;;5073351;28;20438;-81
2022/09/28 00:36:32;;;;;;;0.27;0.10;;;7.90;99.90;;;;;;5071446;28;20963;-79
2022/09/28 00:39:02;;;;;;;0.10;0.10;;;7.90;99.90;;;;;;5071855;28;20439;-79
2022/09/28 00:41:33;;;;;;;0.28;0.28;;;8.00;99.90;;;;;;5072123;28;20763;-81
2022/09/28 00:44:21;;;;;;;0.10;0.10;;;7.90;99.90;;;;;;5072649;28;20431;-77
2022/09/28 00:46:53;;;;;;;0.40;0.35;;;7.90;99.90;;;;;;5072190;28;20458;-79
2022/09/28 00:49:31;;;;;;;0.30;0.30;;;8.00;99.90;;;;;;5072218;28;20501;-80
2022/09/28 00:52:03;;;;;;;0.20;0.20;;;8.00;99.90;;;;;;5071900;28;20438;-79
2022/09/28 00:54:31;;;;;;;0.10;0.10;;;8.00;99.90;;;;;;5071877;28;20434;-78
2022/09/28 00:56:59;;;;;;;0.30;0.30;;;8.00;99.90;;;;;;5072334;28;20442;-79
2022/09/28 00:59:26;;;;;;;0.20;0.13;;;8.10;99.90;;;;;;5072127;28;20431;-79
2022/09/28 01:01:53;;;;;;;0.20;0.20;;;8.00;99.90;;;;;;5072328;28;20435;-79
2022/09/28 01:04:21;;;;;;;0.10;0.10;;;8.00;99.90;;;;;;5071009;28;20913;-81
2022/09/28 01:06:52;;;;;;;0.30;0.30;;;8.00;99.90;;;;;;5071631;28;20479;-78
2022/09/28 01:09:20;;;;;;;0.10;0.10;;;8.00;99.90;;;;;;5072200;28;20434;-79
2022/09/28 01:11:47;;;;;;;0.28;0.28;;;8.10;99.90;;;;;;5071845;28;20423;-79
2022/09/28 01:14:17;;;;;;;0.30;0.30;;;8.10;99.90;;;;;;5071614;28;20431;-79
2022/09/28 01:17:24;;;;;;;0.30;0.30;;;8.10;99.90;;;;;;5071847;28;20630;-79
2022/09/28 01:20:10;;;;;;;0.50;0.50;;;8.10;99.90;;;;;;5070961;28;20432;-78
2022/09/28 01:23:08;;;;;;;0.60;0.40;;;8.10;99.90;;;;;;5072061;28;20439;-81
2022/09/28 01:25:53;;;;;;;0.20;0.20;;;8.10;99.90;;;;;;5070472;28;20522;-79
2022/09/28 01:28:25;;;;;;;0.40;0.32;;;8.10;99.90;;;;;;5071925;28;20992;-78
2022/09/28 01:31:25;;;;;;;0.30;0.30;;;8.10;99.90;;;;;;5071178;28;20430;-77
2022/09/28 01:34:18;;;;;;;1.00;0.22;;;8.10;99.90;;;;;;5008997;28;20436;-79
2022/09/28 01:36:52;;;;;;;0.22;0.22;;;8.10;99.90;;;;;;5009184;28;20428;-78
2022/09/28 01:39:27;;;;;;;0.20;0.20;;;8.00;99.90;;;;;;4993570;28;20443;-78
2022/09/28 01:42:02;;;;;;;0.30;0.30;;;8.10;99.90;;;;;;5009353;28;20444;-78
2022/09/28 01:44:31;;;;;;;1.05;0.38;;;8.10;99.90;;;;;;5009034;28;20467;-79
2022/09/28 01:47:03;;;;;;;0.20;0.20;;;8.10;99.90;;;;;;5009584;28;20436;-80
2022/09/28 01:49:42;;;;;;;0.30;0.30;;;8.10;99.90;;;;;;5009599;28;20975;-79
2022/09/28 01:52:30;;;;;;;0.20;0.20;;;8.20;99.90;;;;;;5011864;28;20429;-79
2022/09/28 01:55:08;;;;;;;3.60;0.40;;;8.20;99.90;;;;;;5013165;28;20438;-78
2022/09/28 01:57:56;;;;;;;0.20;0.20;;;8.20;99.90;;;;;;4996569;28;20428;-77
2022/09/28 02:00:23;;;;;;;0.67;0.50;;;8.30;99.90;;;;;;5013190;28;20443;-78
2022/09/28 02:03:23;;;;;;;0.20;0.20;;;8.30;99.90;;;;;;5013129;28;20867;-79
2022/09/28 02:06:17;;;;;;;0.25;0.25;;;8.40;99.90;;;;;;5005653;28;21222;-78
2022/09/28 02:08:55;;;;;;;0.10;0.10;;;8.40;99.90;;;;;;5013077;28;20459;-78
2022/09/28 02:11:22;;;;;;;0.20;0.20;;;8.40;99.90;;;;;;5072351;28;20987;-79
2022/09/28 02:14:04;;;;;;;1.00;0.28;;;8.40;99.90;;;;;;5074480;28;20425;-78
2022/09/28 02:16:40;;;;;;;0.28;0.28;;;8.40;99.90;;;;;;5074896;28;20484;-78
2022/09/28 02:19:17;;;;;;;0.30;0.30;;;8.40;99.90;;;;;;5074684;28;20466;-79
2022/09/28 02:22:22;;;;;;;0.30;0.30;;;8.40;99.90;;;;;;5074534;28;20434;-78
2022/09/28 02:25:12;;;;;;;0.30;0.30;;;8.40;99.90;;;;;;5074576;28;20434;-78
2022/09/28 02:27:54;;;;;;;0.20;0.20;;;8.30;99.90;;;;;;5074446;28;20435;-78
2022/09/28 02:30:21;;;;;;;0.30;0.30;;;8.30;99.90;;;;;;5074671;28;20434;-78
2022/09/28 02:32:58;;;;;;;0.20;0.20;;;8.30;99.90;;;;;;5074487;28;20437;-79
2022/09/28 02:35:25;;;;;;;0.13;0.13;;;8.30;99.90;;;;;;5074938;28;20434;-78
2022/09/28 02:37:54;;;;;;;0.10;0.10;;;8.40;99.90;;;;;;5074664;28;20442;-78
2022/09/28 02:40:30;;;;;;;0.10;0.10;;;8.40;99.90;;;;;;5074718;28;20435;-78
2022/09/28 02:43:33;;;;;;;0.20;0.20;;;8.40;99.90;;;;;;5074352;28;20435;-78
2022/09/28 02:46:10;;;;;;;0.20;0.20;;;8.40;99.90;;;;;;5074585;28;20944;-78
2022/09/28 02:49:17;;;;;;;0.20;0.20;;;8.40;99.90;;;;;;5074427;28;20427;-78
2022/09/28 02:52:11;;;;;;;0.10;0.10;;;8.40;99.90;;;;;;5088158;28;20802;-78
2022/09/28 02:54:57;;;;;;;0.13;0.13;;;8.40;99.90;;;;;;5073866;28;20793;-78
2022/09/28 02:57:27;;;;;;;0.15;0.15;;;8.50;99.90;;;;;;5072169;28;20504;-74
2022/09/28 03:00:08;;;;;;;0.20;0.20;;;8.30;99.90;;;;;;5071994;28;20435;-75
2022/09/28 03:02:57;;;;;;;0.22;0.22;;;8.30;99.90;;;;;;5071215;28;20477;-73
2022/09/28 03:05:55;;;;;;;0.20;0.20;;;8.20;99.90;;;;;;5008948;28;20611;-73
2022/09/28 03:08:43;;;;;;;0.10;0.10;;;8.10;99.90;;;;;;5009136;28;20475;-74
2022/09/28 03:11:19;;;;;;;0.13;0.13;;;7.90;99.90;;;;;;5009338;28;20834;-73
2022/09/28 03:13:46;;;;;;;0.30;0.30;;;7.90;99.90;;;;;;4992901;28;20436;-72
2022/09/28 03:16:15;;;;;;;0.60;0.30;;;7.90;99.90;;;;;;5009595;28;20437;-73
2022/09/28 03:18:42;;;;;;;0.00;0.00;;;7.90;99.90;;;;;;5009531;28;20431;-72
2022/09/28 03:21:14;;;;;;;0.70;0.10;;;7.80;99.90;;;;;;5009248;28;20435;-73
2022/09/28 03:23:41;;;;;;;0.17;0.17;;;7.80;99.90;;;;;;5009012;28;20428;-72
2022/09/28 03:26:11;;;;;;;0.10;0.10;;;7.80;99.90;;;;;;5009510;28;20429;-72
2022/09/28 03:28:38;;;;;;;0.20;0.20;;;7.80;99.90;;;;;;5009456;28;20435;-72
2022/09/28 03:31:08;;;;;;;0.10;0.10;;;7.90;99.90;;;;;;5009698;28;20424;-72
2022/09/28 03:33:35;;;;;;;0.10;0.10;;;7.80;99.90;;;;;;5008929;28;20428;-72
2022/09/28 03:36:01;;;;;;;0.20;0.20;;;7.80;99.90;;;;;;4992903;28;20437;-72
2022/09/28 03:38:28;;;;;;;0.10;0.10;;;7.80;99.90;;;;;;5009344;28;21162;-75
2022/09/28 03:40:56;;;;;;;0.20;0.20;;;;;;;;;;5009024;28;20946;-73
2022/09/28 03:43:24;;;;;;;0.20;0.20;;;7.80;99.90;;;;;;5061351;28;20440;-71
2022/09/28 03:45:52;;;;;;;0.10;0.10;;;7.80;99.90;;;;;;5070129;28;20952;-72
2022/09/28 03:48:23;;;;;;;0.10;0.10;;;7.70;99.90;;;;;;5071570;28;20508;-72
2022/09/28 03:50:59;;;;;;;0.10;0.10;;;7.60;99.90;;;;;;5071239;28;20431;-72
2022/09/28 03:53:38;;;;;;;0.10;0.10;;;7.60;99.90;;;;;;5071015;28;21081;-72
2022/09/28 03:56:10;;;;;;;0.10;0.10;;;7.60;99.90;;;;;;5069992;28;20972;-72
2022/09/28 03:58:37;;;;;;;0.00;0.00;;;7.60;99.90;;;;;;5071453;28;20481;-72
2022/09/28 04:01:11;;;;;;;0.40;0.20;;;7.60;99.90;;;;;;5071560;28;20443;-72
2022/09/28 04:03:43;;;;;;;0.10;0.10;;;7.60;99.90;;;;;;5069496;28;20431;-72
2022/09/28 04:06:13;;;;;;;0.10;0.10;;;7.50;99.90;;;;;;5070870;28;20432;-71
2022/09/28 04:08:42;;;;;;;0.10;0.10;;;7.50;99.90;;;;;;5071148;28;20939;-71
2022/09/28 04:11:08;;;;;;;0.10;0.10;;;7.50;99.90;;;;;;5071011;28;20427;-71
2022/09/28 04:13:36;;;;;;;0.10;0.10;;;7.40;99.90;;;;;;5070638;28;20463;-72
2022/09/28 04:16:03;;;;;;;0.60;0.20;;;7.30;99.90;;;;;;5070986;28;20423;-72
2022/09/28 04:18:33;;;;;;;0.10;0.10;;;7.30;99.90;;;;;;5070745;28;20436;-72
2022/09/28 04:21:05;;;;;;;0.10;0.10;;;7.10;99.90;;;;;;5070940;28;20427;-72
2022/09/28 04:23:34;;;;;;;0.10;0.10;;;7.10;99.90;;;;;;5070492;28;20463;-71
2022/09/28 04:26:02;;;;;;;0.10;0.10;;;7.10;99.90;;;;;;5070691;28;20431;-71
2022/09/28 04:31:18;;;;;;;0.10;0.10;;;7.10;99.90;;;;;;5070579;28;20442;-71
2022/09/28 04:33:45;;;;;;;0.00;0.00;;;7.10;99.90;;;;;;5070322;28;20427;-72
2022/09/28 04:36:12;;;;;;;0.10;0.10;;;7.10;99.90;;;;;;5070787;28;20481;-72
2022/09/28 04:38:39;;;;;;;0.10;0.10;;;7.10;99.90;;;;;;5070529;28;20787;-71
2022/09/28 04:41:21;;;;;;;0.20;0.20;;;7.10;99.90;;;;;;5070677;28;20451;-71
2022/09/28 04:43:51;;;;;;;0.10;0.10;;;7.20;99.90;;;;;;5069846;28;20496;-71
2022/09/28 04:46:18;;;;;;;0.10;0.10;;;7.20;99.90;;;;;;5070231;28;20909;-71
2022/09/28 04:48:45;;;;;;;0.10;0.10;;;7.20;99.90;;;;;;5070344;28;20427;-71
2022/09/28 04:51:12;;;;;;;0.10;0.10;;;7.20;99.90;;;;;;5070106;28;20427;-71
2022/09/28 04:53:38;;;;;;;0.17;0.17;;;7.30;99.90;;;;;;5069820;28;20415;-71
2022/09/28 04:56:11;;;;;;;0.10;0.10;;;7.30;99.90;;;;;;5068961;28;20432;-72
2022/09/28 04:58:45;;;;;;;0.10;0.10;;;7.30;99.90;;;;;;5070292;28;20458;-70
2022/09/28 05:01:19;;;;;;;0.10;0.10;;;7.30;99.90;;;;;;5070229;28;20548;-73
2022/09/28 05:03:46;;;;;;;0.10;0.10;;;7.30;99.90;;;;;;5069613;28;20432;-73
2022/09/28 05:06:21;;;;;;;0.20;0.20;;;7.30;99.90;;;;;;5069157;28;20427;-73
2022/09/28 05:08:48;;;;;;;0.20;0.20;;;7.30;99.90;;;;;;5070226;28;20430;-73
2022/09/28 05:11:15;;;;;;;0.00;0.00;;;7.20;99.90;;;;;;5069942;28;20435;-73
2022/09/28 05:13:44;;;;;;;0.10;0.10;;;7.20;99.90;;;;;;5069817;28;20887;-73
2022/09/28 05:16:14;;;;;;;0.17;0.17;;;7.20;99.90;;;;;;5069781;28;20419;-73
2022/09/28 05:18:41;;;;;;;0.10;0.10;;;7.10;99.90;;;;;;5070072;28;20488;-73
2022/09/28 05:21:11;;;;;;;0.10;0.10;;;7.10;99.90;;;;;;5070147;28;20449;-73
2022/09/28 05:23:38;;;;;;;0.10;0.10;;;7.00;99.90;;;;;;5069633;28;20503;-73
2022/09/28 05:26:06;;;;;;;0.10;0.10;;;7.00;99.90;;;;;;5069184;28;20435;-73
2022/09/28 05:28:33;;;;;;;1.50;0.20;;;6.80;99.90;;;;;;5069841;28;20430;-73
2022/09/28 05:31:00;;;;;;;0.20;0.20;;;6.70;99.90;;;;;;5069897;28;20434;-73
2022/09/28 05:33:28;;;;;;;0.25;0.20;;;6.60;99.90;;;;;;5069691;28;20453;-73
2022/09/28 05:35:56;;;;;;;0.20;0.20;;;6.50;99.90;;;;;;5069585;28;20443;-73
2022/09/28 05:38:27;;;;;;;0.40;0.40;;;6.50;99.90;;;;;;5070299;28;20488;-72
2022/09/28 05:40:54;;;;;;;0.20;0.20;;;6.40;99.90;;;;;;5068825;28;20442;-72
2022/09/28 05:43:22;;;;;;;0.20;0.20;;;6.40;99.90;;;;;;5068821;28;20992;-72
2022/09/28 05:45:51;;;;;;;0.20;0.20;;;6.30;99.90;;;;;;5069483;28;20717;-72
2022/09/28 05:48:21;;;;;;;0.70;0.30;;;6.30;99.90;;;;;;5069845;28;20427;-72
2022/09/28 05:50:51;;;;;;;0.20;0.20;;;6.30;99.90;;;;;;5069819;28;20427;-72
2022/09/28 05:53:19;;;;;;;0.20;0.20;;;6.30;99.90;;;;;;5067854;28;20431;-72
2022/09/28 05:55:46;;;;;;;0.20;0.20;;;6.20;99.90;;;;;;5069463;28;20454;-72
2022/09/28 05:58:12;;;;;;;0.30;0.30;;;6.10;99.90;;;;;;5069571;28;20492;-73
2022/09/28 06:00:42;;;;;;;0.55;0.32;;;6.10;99.90;;;;;;5069746;28;20432;-72
2022/09/28 06:03:11;;;;;;;0.20;0.20;;;6.00;99.90;;;;;;5068102;28;20431;-73
2022/09/28 06:05:39;;;;;;;0.20;0.20;;;6.00;99.90;;;;;;5069645;28;20424;-73
2022/09/28 06:08:09;;;;;;;0.10;0.10;;;6.00;99.90;;;;;;5069587;28;20933;-72
2022/09/28 06:10:36;;;;;;;0.10;0.10;;;6.10;99.90;;;;;;5069459;28;20564;-73
2022/09/28 06:13:03;;;;;;;0.10;0.10;;;6.20;99.90;;;;;;5069292;28;20423;-72
2022/09/28 06:15:32;;;;;;;0.10;0.10;;;6.30;99.90;;;;;;5069525;28;20940;-72
2022/09/28 06:18:09;;;;;;;0.10;0.10;;;6.50;99.90;;;;;;5068981;28;20955;-73
2022/09/28 06:20:40;;;;;;;0.10;0.10;;;6.80;99.90;;;;;;5069596;28;20423;-73
2022/09/28 06:23:10;;;;;;;0.20;0.20;;;7.50;99.90;;;;;;5068978;28;20512;-74
2022/09/28 06:25:37;;;;;;;0.10;0.10;;;;;;;;;;5069546;28;20424;-73
2022/09/28 06:28:12;;;;;;;0.20;0.10;;;8.20;99.90;;;;;;5068330;28;20833;-71
2022/09/28 06:30:41;;;;;;;0.20;0.20;;;9.50;99.90;;;;;;5069425;28;20423;-71
2022/09/28 06:33:11;;;;;;;0.10;0.10;;;10.10;99.90;;;;;;5068999;28;20518;-72
2022/09/28 06:35:39;;;;;;;0.28;0.28;;;10.50;99.90;;;;;;5069598;28;20434;-72
2022/09/28 06:38:06;;;;;;;0.10;0.10;;;10.90;99.90;;;;;;5069876;28;20439;-75
2022/09/28 06:40:33;;;;;;;0.30;0.30;;;11.10;99.90;;;;;;5074346;28;20491;-74
2022/09/28 06:43:08;;;;;;;0.30;0.30;;;;;;;;;;5072245;28;20486;-74
2022/09/28 06:45:37;;;;;;;0.20;0.20;;;11.40;99.90;;;;;;5072545;28;20431;-74
2022/09/28 06:48:04;;;;;;;0.30;0.30;;;;;;;;;;5072847;28;20431;-74
2022/09/28 06:50:39;;;;;;;0.30;0.30;;;;;;;;;;5072746;28;20439;-74
2022/09/28 06:53:13;;;;;;;0.30;0.30;;;12.00;99.90;;;;;;5072112;28;20427;-74
2022/09/28 06:55:43;;;;;;;0.20;0.20;;;13.00;99.90;;;;;;5071884;28;20423;-74
2022/09/28 06:58:11;;;;;;;0.20;0.20;;;13.20;99.90;;;;;;5072429;28;20435;-73
2022/09/28 07:00:39;;;;;;;0.30;0.30;;;13.60;99.90;;;;;;5072446;28;20485;-74
2022/09/28 07:03:16;;;;;;;0.40;0.40;;;13.70;99.90;;;;;;5072026;28;20428;-74
2022/09/28 07:05:45;;;;;;;0.20;0.20;;;14.00;99.90;;;;;;5072272;28;20907;-73
2022/09/28 07:08:13;;;;;;;0.30;0.30;;;14.20;99.90;;;;;;5072332;28;20463;-74
2022/09/28 07:10:44;;;;;;;0.20;0.20;;;14.30;99.90;;;;;;5072389;28;20451;-73
2022/09/28 07:13:12;;;;;;;0.20;0.20;;;14.50;99.90;;;;;;5072342;28;20427;-73
2022/09/28 07:16:00;;;;;;;0.23;0.23;;;14.60;99.90;;;;;;5072134;28;20446;-73
2022/09/28 07:18:28;;;;;;;0.25;0.25;;;14.50;99.90;;;;;;5072321;28;20431;-73
2022/09/28 07:20:56;;;;;;;0.20;0.20;;;14.60;99.90;;;;;;5072020;28;20477;-73
2022/09/28 07:23:26;;;;;;;0.20;0.20;;;14.60;99.90;;;;;;5071218;28;20438;-72
2022/09/28 07:25:53;;;;;;;0.20;0.20;;;14.50;99.90;;;;;;5072305;28;20443;-74
2022/09/28 07:28:22;;;;;;;0.20;0.20;;;14.20;99.90;;;;;;5071599;28;20936;-73
2022/09/28 07:30:49;;;;;;;0.20;0.20;;;14.30;99.90;;;;;;5070932;28;20467;-73
2022/09/28 07:33:16;;;;;;;0.30;0.30;;;14.40;99.90;;;;;;5071631;28;20547;-73
2022/09/28 07:35:51;;;;;;;0.28;0.28;;;14.70;99.90;;;;;;5070867;28;20879;-74
2022/09/28 07:38:21;;;;;;;0.20;0.20;;;14.60;99.90;;;;;;5071830;28;20501;-73
2022/09/28 07:43:34;;;;;;;0.20;0.20;;;14.60;99.90;;;;;;5071479;28;20485;-74
2022/09/28 07:46:00;;;;;;;0.23;0.23;;;14.70;99.90;;;;;;5071508;28;20434;-75
2022/09/28 07:48:35;;;;;;;0.20;0.20;;;15.10;99.90;;;;;;5071245;28;20809;-75
2022/09/28 07:51:02;;;;;;;0.40;0.40;;;15.40;99.90;;;;;;5071867;28;20435;-76
2022/09/28 07:53:30;;;;;;;0.40;0.30;;;15.40;99.90;;;;;;5071364;28;20430;-76
2022/09/28 07:56:08;;;;;;;0.20;0.20;;;15.40;99.90;;;;;;5071307;28;20431;-75
2022/09/28 07:58:37;;;;;;;0.20;0.20;;;15.60;99.90;;;;;;5072108;28;20427;-76
2022/09/28 08:01:09;;;;;;;0.20;0.20;;;15.70;99.90;;;;;;5071105;28;20442;-75
2022/09/28 08:03:37;;;;;;;0.20;0.20;;;15.90;99.90;;;;;;5070794;28;20439;-75
2022/09/28 08:06:06;;;;;;;0.20;0.20;;;16.40;99.90;;;;;;5071414;28;20427;-74
2022/09/28 08:08:36;;;;;;;0.20;0.20;;;16.30;99.90;;;;;;5070025;28;20431;-75
2022/09/28 08:11:06;;;;;;;0.20;0.20;;;15.80;99.90;;;;;;5071226;28;20795;-74
2022/09/28 08:13:32;;;;;;;0.30;0.30;;;15.40;99.90;;;;;;5070702;28;20419;-74
2022/09/28 08:16:00;;;;;;;0.60;0.20;;;15.20;99.90;;;;;;5070236;28;20435;-75
2022/09/28 08:18:27;;;;;;;0.20;0.20;;;15.00;99.90;;;;;;5071374;28;20423;-74
2022/09/28 08:23:41;;;;;;;0.20;0.20;;;14.50;99.90;;;;;;5070390;28;20431;-74
2022/09/28 08:26:08;;;;;;;0.20;0.20;;;14.10;99.90;;;;;;5070832;28;20921;-74
2022/09/28 08:28:46;;;;;;;0.15;0.15;;;13.50;99.90;;;;;;5070450;28;20423;-74
2022/09/28 08:31:13;;;;;;;0.20;0.20;;;13.20;99.90;;;;;;5070917;28;20479;-74
2022/09/28 08:33:43;;;;;;;0.20;0.20;;;13.10;99.90;;;;;;5070200;28;20427;-74
2022/09/28 08:36:10;;;;;;;0.15;0.15;;;12.90;99.90;;;;;;5069334;28;20434;-74
2022/09/28 08:38:37;;;;;;;1.60;0.20;;;12.70;99.90;;;;;;5070178;28;20981;-74
2022/09/28 08:41:28;;;;;;;0.20;0.20;;;12.60;99.90;;;;;;5071126;28;20427;-73
2022/09/28 08:44:07;;;;;;;0.30;0.30;;;12.30;99.90;;;;;;5070757;28;20431;-75
2022/09/28 08:46:45;;;;;;;0.10;0.10;;;12.30;99.90;;;;;;5071609;28;20481;-75
2022/09/28 08:49:28;;;;;;;0.20;0.20;;;12.20;99.90;;;;;;5071207;28;20442;-73
2022/09/28 08:51:55;;;;;;;0.20;0.20;;;;;;;;;;5070493;28;20435;-75
2022/09/28 08:54:36;;;;;;;0.30;0.30;;;;;;;;;;5068883;28;20457;-74
2022/09/28 08:57:06;;;;;;;0.20;0.20;;;;;;;;;;5070305;28;20439;-74
2022/09/28 08:59:52;;;;;;;0.30;0.30;;;12.50;99.90;;;;;;5070206;28;20524;-75
2022/09/28 09:02:32;;;;;;;0.30;0.30;;;15.00;99.90;;;;;;5069710;28;20440;-74
2022/09/28 09:05:12;;;;;;;0.30;0.30;;;15.70;99.90;;;;;;5068679;28;20454;-73
2022/09/28 09:08:01;;;;;;;0.40;0.40;;;15.50;99.90;;;;;;5068461;28;20949;-74
2022/09/28 09:10:49;;;;;;;0.20;0.20;;;15.00;99.90;;;;;;5069959;28;20510;-76
2022/09/28 09:13:34;;;;;;;0.30;0.30;;;15.20;99.90;;;;;;5069857;28;20435;-74
2022/09/28 09:16:15;;;;;;;0.20;0.20;;;15.90;99.90;;;;;;5070153;28;20439;-75
2022/09/28 09:18:48;;;;;;;0.28;0.28;;;16.70;99.90;;;;;;5070581;28;20431;-75
2022/09/28 09:21:54;;;;;;;0.20;0.20;;;17.40;99.90;;;;;;5070118;28;20522;-75
2022/09/28 09:24:26;;;;;;;0.30;0.30;;;18.20;99.90;;;;;;5068458;28;20431;-71
2022/09/28 09:27:16;;;;;;;0.20;0.20;;;18.30;99.90;;;;;;5069937;28;20521;-73
2022/09/28 09:30:05;;;;;;;0.20;0.20;;;18.60;99.90;;;;;;5069408;28;20545;-74
2022/09/28 09:33:25;;;;;;;0.33;0.33;;;18.60;99.90;;;;;;5069852;28;20435;-74
2022/09/28 09:36:16;;;;;;;0.40;0.40;;;18.30;99.90;;;;;;5068753;28;20438;-74
2022/09/28 09:39:10;;;;;;;0.30;0.30;;;18.10;99.90;;;;;;5068663;28;20423;-73
2022/09/28 09:42:08;;;;;;;0.20;0.20;;;18.00;99.90;;;;;;5048091;28;20428;-73
2022/09/28 09:45:02;;;;;;;0.30;0.30;;;18.00;99.90;;;;;;5069230;28;20435;-74
2022/09/28 09:47:38;;;;;;;0.30;0.30;;;18.40;99.90;;;;;;5069741;28;20497;-73
2022/09/28 09:50:21;;;;;;;0.10;0.10;;;18.60;99.90;;;;;;5069673;28;20427;-73
2022/09/28 09:52:56;;;;;;;0.60;0.30;;;19.00;99.90;;;;;;5069800;28;20434;-73
2022/09/28 09:55:39;;;;;;;0.20;0.20;;;19.20;99.90;;;;;;5069741;28;20821;-73
2022/09/28 09:58:21;;;;;;;0.10;0.10;;;18.90;99.90;;;;;;5069681;28;20431;-74
2022/09/28 10:00:53;;;;;;;0.10;0.10;;;18.30;99.90;;;;;;5069656;28;20427;-74
2022/09/28 10:03:29;;;;;;;0.20;0.20;;;17.40;99.90;;;;;;5067843;28;20426;-73
2022/09/28 10:06:04;;;;;;;0.15;0.15;;;16.40;99.90;;;;;;5068033;28;20790;-74
2022/09/28 10:08:39;;;;;;;0.20;0.20;;;15.50;99.90;;;;;;5069680;28;20430;-74
2022/09/28 10:11:15;;;;;;;0.20;0.20;;;15.00;99.90;;;;;;5069447;28;20917;-75
2022/09/28 10:13:43;;;;;;;0.30;0.20;;;14.40;99.90;;;;;;5072105;28;20439;-74
2022/09/28 10:16:10;;;;;;;0.20;0.20;;;14.00;99.90;;;;;;5073284;28;20431;-74
2022/09/28 10:18:37;;;;;;;0.30;0.30;;;13.80;99.90;;;;;;5073648;28;20431;-74
2022/09/28 10:21:05;;;;;;;0.20;0.20;;;13.60;99.90;;;;;;5073123;28;20427;-74
2022/09/28 10:23:35;;;;;;;0.20;0.20;;;13.40;99.90;;;;;;5073005;28;20431;-74
2022/09/28 10:26:29;;;;;;;0.20;0.20;;;13.20;99.90;;;;;;5073315;28;20918;-74
2022/09/28 10:29:03;;;;;;;0.20;0.20;;;13.00;99.90;;;;;;5072676;28;20419;-73
2022/09/28 10:31:35;;;;;;;0.20;0.20;;;13.00;99.90;;;;;;5072981;28;20798;-75
2022/09/28 10:34:04;;;;;;;0.25;0.20;;;13.00;99.90;;;;;;5072310;28;20428;-74
2022/09/28 10:36:37;;;;;;;0.20;0.20;;;13.20;99.90;;;;;;5072993;28;20476;-73
2022/09/28 10:39:04;;;;;;;0.10;0.10;;;13.30;99.90;;;;;;5071303;28;20431;-75
2022/09/28 10:41:31;;;;;;;0.90;0.20;;;13.60;99.90;;;;;;5072255;28;21060;-75
2022/09/28 10:44:05;;;;;;;0.20;0.20;;;13.80;99.90;;;;;;5071520;28;20898;-74
2022/09/28 10:46:34;;;;;;;0.20;0.20;;;14.00;99.90;;;;;;5072157;28;21117;-77
2022/09/28 10:49:05;;;;;;;0.20;0.20;;;14.20;99.90;;;;;;5073062;28;20419;-75
2022/09/28 10:51:46;;;;;;;0.10;0.10;;;14.30;99.90;;;;;;5072644;28;20510;-73
2022/09/28 10:54:24;;;;;;;0.20;0.20;;;14.60;99.90;;;;;;5072192;28;20431;-73
2022/09/28 10:56:53;;;;;;;0.20;0.20;;;15.20;99.90;;;;;;5072256;28;20427;-74
2022/09/28 10:59:28;;;;;;;1.70;0.40;;;15.50;99.90;;;;;;5072268;28;20522;-74
2022/09/28 11:02:17;;;;;;;0.20;0.20;;;15.80;99.90;;;;;;5072077;28;20963;-75
2022/09/28 11:04:53;;;;;;;0.20;0.20;;;15.80;99.90;;;;;;5071438;28;20804;-75
2022/09/28 11:07:24;;;;;;;0.20;0.20;;;15.50;99.90;;;;;;5072241;28;20438;-75
2022/09/28 11:09:53;;;;;;;0.35;0.35;;;15.40;99.90;;;;;;5072353;28;20515;-74
2022/09/28 11:12:31;;;;;;;0.20;0.20;;;15.10;99.90;;;;;;5072218;28;20508;-74
2022/09/28 11:15:04;;;;;;;0.30;0.28;;;15.00;99.90;;;;;;5070248;28;20976;-74
2022/09/28 11:17:42;;;;;;;0.22;0.22;;;15.10;99.90;;;;;;5072391;28;20454;-74
2022/09/28 11:20:24;;;;;;;0.20;0.20;;;15.30;99.90;;;;;;5072371;28;20424;-73
2022/09/28 11:23:17;;;;;;;0.20;0.20;;;15.80;99.90;;;;;;5070461;28;20431;-74
2022/09/28 11:25:55;;;;;;;0.20;0.20;;;;;;;;;;5073013;28;20439;-73
2022/09/28 11:28:31;;;;;;;0.20;0.20;;;16.20;99.90;;;;;;5072182;28;20898;-76
2022/09/28 11:31:00;;;;;;;0.17;0.17;;;17.00;99.90;;;;;;5072054;28;20423;-74
2022/09/28 11:33:35;;;;;;;0.20;0.20;;;17.10;99.90;;;;;;5071220;28;20428;-74
2022/09/28 11:36:15;;;;;;;0.20;0.20;;;17.30;99.90;;;;;;5072024;28;20457;-73
2022/09/28 11:39:10;;;;;;;0.10;0.10;;;17.40;99.90;;;;;;5071844;28;20427;-75
2022/09/28 11:41:42;;;;;;;0.50;0.20;;;17.80;99.90;;;;;;5071920;28;20427;-74
2022/09/28 11:44:20;;;;;;;0.17;0.17;;;17.80;99.90;;;;;;5071573;28;20423;-74
2022/09/28 11:47:25;;;;;;;0.20;0.20;;;17.60;99.90;;;;;;5071747;28;20427;-73
2022/09/28 11:50:05;;;;;;;0.20;0.20;;;17.50;99.90;;;;;;4973251;28;20786;-73
2022/09/28 11:52:50;;;;;;;0.20;0.20;;;17.60;99.90;;;;;;4973541;28;20430;-73
2022/09/28 11:55:39;;;;;;;0.20;0.20;;;17.50;99.90;;;;;;4989394;28;20434;-72
2022/09/28 11:58:14;;;;;;;0.20;0.20;;;17.20;99.90;;;;;;4989437;28;20991;-72
2022/09/28 12:00:56;;;;;;;0.20;0.20;;;17.10;99.90;;;;;;4989582;28;20434;-72
2022/09/28 12:03:48;;;;;;;0.20;0.20;;;17.00;99.90;;;;;;4989425;28;20438;-71
2022/09/28 12:06:18;;;;;;;0.20;0.20;;;17.40;99.90;;;;;;4989368;28;20434;-72
2022/09/28 12:08:52;;;;;;;0.20;0.20;;;17.90;99.90;;;;;;4989738;28;20430;-71
2022/09/28 12:11:35;;;;;;;0.20;0.20;;;18.20;99.90;;;;;;4989126;28;20426;-75
2022/09/28 12:14:16;;;;;;;0.10;0.10;;;18.20;99.90;;;;;;4989054;28;20486;-72
2022/09/28 12:17:08;;;;;;;0.20;0.20;;;18.20;99.90;;;;;;4989460;28;20851;-73
2022/09/28 12:19:46;;;;;;;0.20;0.20;;;18.10;99.90;;;;;;4989378;28;20427;-72
2022/09/28 12:22:30;;;;;;;0.20;0.20;;;18.00;99.90;;;;;;4989033;28;20972;-71
2022/09/28 12:24:59;;;;;;;0.10;0.10;;;17.90;99.90;;;;;;5009263;28;20913;-73
2022/09/28 12:27:33;;;;;;;0.30;0.20;;;17.60;99.90;;;;;;5070773;28;20976;-73
2022/09/28 12:30:19;;;;;;;0.20;0.20;;;17.30;99.90;;;;;;5070920;28;20431;-73
2022/09/28 12:32:57;;;;;;;0.20;0.20;;;16.90;99.90;;;;;;5071024;28;20424;-73
2022/09/28 12:35:42;;;;;;;1.17;0.30;;;16.70;99.90;;;;;;5070208;28;20427;-73
2022/09/28 12:38:34;;;;;;;0.20;0.20;;;16.40;99.90;;;;;;5070842;28;20443;-75
2022/09/28 12:41:10;;;;;;;0.13;0.13;;;16.20;99.90;;;;;;5070901;28;20442;-72
2022/09/28 12:44:30;;;;;;;0.10;0.10;;;16.10;99.90;;;;;;5069634;28;20763;-73
2022/09/28 12:47:26;;;;;;;0.20;0.20;;;15.90;99.90;;;;;;4988474;28;20438;-73
2022/09/28 12:50:11;;;;;;;0.20;0.20;;;15.90;99.90;;;;;;5070564;28;20428;-73
2022/09/28 12:53:40;;;;;;;0.20;0.20;;;15.80;99.90;;;;;;5068920;28;20435;-72
2022/09/28 12:56:32;;;;;;;0.30;0.30;;;15.60;99.90;;;;;;5070593;28;20419;-72
2022/09/28 12:59:25;;;;;;;0.20;0.20;;;15.50;99.90;;;;;;5070256;28;20439;-73
2022/09/28 13:02:26;;;;;;;0.20;0.20;;;15.40;99.90;;;;;;5070662;28;20427;-75
2022/09/28 13:05:06;;;;;;;0.10;0.10;;;15.60;99.90;;;;;;5025212;28;20767;-73
2022/09/28 13:07:49;;;;;;;0.20;0.20;;;15.70;99.90;;;;;;5070514;28;20485;-72
2022/09/28 13:10:21;;;;;;;0.20;0.20;;;15.60;99.90;;;;;;5070388;28;20423;-73
2022/09/28 13:13:07;;;;;;;0.30;0.30;;;15.60;99.90;;;;;;5069282;28;20427;-73
2022/09/28 13:15:43;;;;;;;0.20;0.20;;;15.50;99.90;;;;;;5070074;28;20428;-72
2022/09/28 13:18:13;;;;;;;0.30;0.30;;;15.40;99.90;;;;;;5069222;28;20515;-72
2022/09/28 13:21:07;;;;;;;0.32;0.30;;;15.60;99.90;;;;;;5069052;28;20428;-71
2022/09/28 13:23:37;;;;;;;0.20;0.20;;;15.80;99.90;;;;;;5069952;28;21039;-71
2022/09/28 13:26:08;;;;;;;0.20;0.20;;;16.00;99.90;;;;;;5070035;28;20435;-71
2022/09/28 13:28:36;;;;;;;0.50;0.22;;;16.30;99.90;;;;;;5069283;28;20423;-71
2022/09/28 13:31:04;;;;;;;0.20;0.20;;;16.30;99.90;;;;;;5070200;28;20457;-71
2022/09/28 13:33:49;;;;;;;1.20;0.28;;;16.40;99.90;;;;;;5068535;28;21036;-72
2022/09/28 13:36:39;;;;;;;0.20;0.20;;;16.60;99.90;;;;;;5069013;28;20427;-72
2022/09/28 13:39:35;;;;;;;0.20;0.20;;;16.60;99.90;;;;;;5070202;28;20899;-70
2022/09/28 13:42:05;;;;;;;0.20;0.20;;;16.80;99.90;;;;;;5064212;28;20440;-71
2022/09/28 13:44:43;;;;;;;0.20;0.20;;;16.70;99.90;;;;;;5069733;28;20818;-71
2022/09/28 13:47:20;;;;;;;0.10;0.10;;;16.60;99.90;;;;;;5070968;28;20453;-70
2022/09/28 13:50:11;;;;;;;0.20;0.20;;;16.40;99.90;;;;;;5074148;28;20517;-71